Salem, IL

1:52 AM CDT on July 31, 2014 (GMT -0500)
Red Stripe Rd (KILSALEM3) Elev 528 ft | 38.60 °N, 88.99 °W | Change Station

Current weather conditions updated 8 minutes ago

Clear
Clear
59.5 °F
Feels Like 59.5 °F
N
0.0
Wind Variable Wind from SW

Today is forecast to be nearly the same temperature as yesterday.

Today
High -- | Low -- °F
--% Chance of Precip.
Yesterday
High -- | Low -- °F
Precip. -- in
5:56 AM 8:07 PM
Waxing Crescent, 16% visible
Pressure 30.08 in
Visibility 7.0 miles
Clouds Clear
Dew Point 58 °F
Humidity 94%
Rainfall 0.00 in
Snow Depth Not available.
UV 0 out of 12
Pollen 6.70 out of 12
Air Quality Not available.
Flu Activity Not available.
METAR KENL 310635Z AUTO 00000KT 7SM CLR 15/14 A3008 RMK AO2 T01460135 TSNO

More Conditions Fewer Conditions

Pressure 30.08 in
Visibility 7.0 miles
Clouds Clear
Dew Point 58 °F
Humidity 94%
Rainfall 0.00 in
Snow Depth Not available.
UV 0 out of 12
Pollen 6.70 out of 12
Air Quality Not available.
Flu Activity Not available.
METAR KENL 310635Z AUTO 00000KT 7SM CLR 15/14 A3008 RMK AO2 T01460135 TSNO

More Conditions Fewer Conditions

10-Day Weather Forecast

Almanac

Astronomy

Jul. 31, 2014 Rise Set
Actual Time 5:56 AM CDT 8:07 PM CDT
Civil Twilight 5:26 AM CDT 8:36 PM CDT
Nautical Twilight 4:50 AM CDT 9:13 PM CDT
Astronomical Twilight 4:10 AM CDT 9:52 PM CDT
Moon 10:20 AM CDT 10:24 PM CDT
Length of Visible Light 15h 09m
Length of Day
14h 10m
Tomorrow will be 1m 53s shorter.
Waxing Crescent, 16% of the Moon is Illuminated
Today
Waxing Crescent
Aug 3
First Quarter
Aug 10
Full
Aug 17
Last Quarter
Aug 25
New

Today's Extremes

State Highs State Lows

Community

WunderPhotos

Upload Photos

1,739,251 photos uploaded!

Nearby

Snow Depth

Station Depth Elevation
No new snow has been reported.

Earthquake Activity

City Distance Mag. Time & Date
No recent earthquake activity has been reported nearby.
Minimum magnitude displayed is 2.5.

Coastal Water Temperatures

Place Temperature
No Stations Reporting

Nearby Weather Stations

Station Location Temp. Dew Point Humidity Wind Precip. Elev Updated Type
Red Stripe Rd, Salem, IL 59.5 °F 58 °F 94% SW  at  0.0 mph - / hr 528 ft 1:44 AM CDT Normal
Alma Weather Station, Alma, IL 62.5 °F 59 °F 88% SW  at  0.0 mph 0.00 in / hr 595 ft 1:52 AM CDT Rapid Fire
Middleton Street Weather, Iuka, IL 61.7 °F 49 °F 62% North  at  0.0 mph 0.00 in / hr 518 ft 1:52 AM CDT Rapid Fire
Kinmundy Atmospheric Research Laboratory, Kinmundy, IL 61.1 °F 59 °F 94% WSW  at  0.0 mph 0.00 in / hr 570 ft 1:37 AM CDT Normal
Holiday Terrace, Centralia, IL 63.7 °F 60 °F 87% WSW  at  0.0 mph 0.00 in / hr 534 ft 1:50 AM CDT Normal
MesoWest STPETR , Saint Peter, IL 62 °F - - North  at  - 0.00 in / hr 585 ft 12:05 AM CDT MADIS
Courthouse, Carlyle, IL 65.7 °F 62 °F 87% WSW  at  0.0 mph 0.00 in / hr 472 ft 1:47 AM CDT Normal

Show More Stations Show Fewer Stations